createdAt,value
2018-05-08T00:02:26.153Z,73.10
2018-05-08T00:04:53.672Z,72.70
2018-05-08T00:07:21.153Z,73.50
2018-05-08T00:09:48.639Z,74.10
2018-05-08T00:12:16.122Z,74.70
2018-05-08T00:14:44.406Z,74.50
2018-05-08T00:17:12.675Z,76.90
2018-05-08T00:19:40.920Z,76.60
2018-05-08T00:22:08.868Z,76.60
2018-05-08T00:24:36.340Z,75.60
2018-05-08T00:27:04.581Z,76.30
2018-05-08T00:29:32.042Z,76.50
2018-05-08T00:31:59.543Z,73.60
2018-05-08T00:34:27.013Z,74.40
2018-05-08T00:36:54.549Z,71.60
2018-05-08T00:39:22.025Z,72.10
2018-05-08T00:41:49.500Z,72.70
2018-05-08T00:44:16.947Z,72.90
2018-05-08T00:46:44.725Z,71.80
2018-05-08T00:49:12.172Z,72.10
2018-05-08T00:51:39.641Z,71.60
2018-05-08T00:54:07.097Z,70.20
2018-05-08T00:56:34.601Z,69.00
2018-05-08T00:59:03.081Z,68.40
2018-05-08T01:01:31.036Z,67.80
2018-05-08T01:03:58.522Z,67.50
2018-05-08T01:06:26.009Z,67.00
2018-05-08T01:08:53.492Z,67.10
2018-05-08T01:11:21.091Z,66.80
2018-05-08T01:13:48.686Z,66.80
2018-05-08T01:16:16.184Z,67.20
2018-05-08T01:18:45.223Z,68.80
2018-05-08T01:21:12.771Z,68.80
2018-05-08T01:23:40.232Z,69.20
2018-05-08T01:26:07.705Z,69.30
2018-05-08T01:28:35.236Z,69.70
2018-05-08T01:31:02.726Z,70.20
2018-05-08T01:33:30.231Z,71.10
2018-05-08T01:35:58.369Z,71.20
2018-05-08T01:38:25.883Z,72.20
2018-05-08T01:40:53.343Z,73.30
2018-05-08T01:43:20.902Z,73.50
2018-05-08T01:45:48.340Z,73.80
2018-05-08T01:48:15.784Z,73.70
2018-05-08T01:50:43.258Z,74.10
2018-05-08T01:53:10.839Z,73.30
2018-05-08T01:55:41.795Z,74.80
2018-05-08T01:58:09.253Z,74.40
2018-05-08T02:00:37.656Z,75.70
2018-05-08T02:03:05.101Z,75.70
2018-05-08T02:05:32.612Z,75.60
2018-05-08T02:08:00.108Z,76.70
2018-05-08T02:10:32.085Z,77.00
2018-05-08T02:12:59.533Z,78.30
2018-05-08T02:15:27.043Z,78.40
2018-05-08T02:17:54.504Z,77.90
2018-05-08T02:20:22.033Z,77.40
2018-05-08T02:22:49.461Z,77.00
2018-05-08T02:25:16.966Z,78.20
2018-05-08T02:27:45.228Z,78.20
2018-05-08T02:30:13.044Z,78.50
2018-05-08T02:32:40.527Z,77.40
2018-05-08T02:35:08.038Z,78.90
2018-05-08T02:37:35.510Z,76.90
2018-05-08T02:40:02.968Z,78.20
2018-05-08T02:42:33.567Z,77.80
2018-05-08T02:45:01.072Z,78.10
2018-05-08T02:47:29.169Z,78.40
2018-05-08T02:49:56.657Z,79.60
2018-05-08T02:52:24.252Z,80.90
2018-05-08T02:54:51.665Z,82.10
2018-05-08T02:57:19.160Z,81.60
2018-05-08T02:59:46.632Z,81.90
2018-05-08T03:02:14.124Z,80.40
2018-05-08T03:04:41.634Z,80.80
2018-05-08T03:07:09.135Z,80.40
2018-05-08T03:09:36.577Z,81.30
2018-05-08T03:12:08.922Z,81.40
2018-05-08T03:14:36.881Z,81.40
2018-05-08T03:17:04.390Z,82.90
2018-05-08T03:19:33.954Z,84.60
2018-05-08T03:22:01.416Z,84.60
2018-05-08T03:24:28.883Z,84.40
2018-05-08T03:26:59.895Z,82.90
2018-05-08T03:29:27.587Z,83.30
2018-05-08T03:31:55.083Z,84.10
2018-05-08T03:34:22.553Z,83.70
2018-05-08T03:36:50.054Z,83.30
2018-05-08T03:39:19.087Z,84.10
2018-05-08T03:41:46.815Z,84.10
2018-05-08T03:44:14.331Z,84.20
2018-05-08T03:46:41.788Z,83.30
2018-05-08T03:49:09.240Z,85.60
2018-05-08T03:51:36.969Z,86.60
2018-05-08T03:54:04.709Z,85.80
2018-05-08T03:56:32.187Z,85.80
2018-05-08T03:59:00.008Z,86.90
2018-05-08T04:01:39.161Z,88.10
2018-05-08T04:04:20.045Z,88.40
2018-05-08T04:07:08.267Z,88.40
2018-05-08T04:09:35.744Z,89.70
2018-05-08T04:12:03.236Z,90.10
2018-05-08T04:14:31.434Z,90.30
2018-05-08T04:16:58.929Z,90.60
2018-05-08T04:19:26.421Z,90.90
2018-05-08T04:21:53.881Z,90.50
2018-05-08T04:24:21.612Z,90.60
2018-05-08T04:26:49.069Z,90.90
2018-05-08T04:29:16.528Z,90.00
2018-05-08T04:31:44.008Z,90.70
2018-05-08T04:34:11.509Z,86.90
2018-05-08T04:36:39.108Z,82.30
2018-05-08T04:39:06.509Z,80.80
2018-05-08T04:41:34.485Z,78.20
2018-05-08T04:44:05.478Z,74.40
2018-05-08T04:46:33.952Z,70.30
2018-05-08T04:49:01.440Z,70.20
2018-05-08T04:51:29.545Z,67.90
2018-05-08T04:53:56.998Z,67.50
2018-05-08T04:56:24.462Z,65.80
2018-05-08T04:58:55.944Z,63.50
2018-05-08T05:01:25.189Z,61.60
2018-05-08T05:03:52.685Z,60.30
2018-05-08T05:06:20.145Z,59.70
2018-05-08T05:08:47.611Z,57.10
2018-05-08T05:11:15.077Z,54.70
2018-05-08T05:13:53.090Z,54.30
2018-05-08T05:16:20.543Z,54.10
2018-05-08T05:18:48.093Z,52.60
2018-05-08T05:21:15.557Z,51.00
2018-05-08T05:23:44.850Z,49.00
2018-05-08T05:26:12.332Z,48.90
2018-05-08T05:28:40.572Z,48.40
2018-05-08T05:31:10.488Z,48.10
2018-05-08T05:33:37.944Z,48.10
2018-05-08T05:36:05.413Z,48.00
2018-05-08T05:38:32.915Z,48.00
2018-05-08T05:41:00.393Z,48.00
2018-05-08T05:43:28.589Z,48.10
2018-05-08T05:45:56.047Z,48.30
2018-05-08T05:48:23.515Z,47.90
2018-05-08T05:50:50.996Z,47.90
2018-05-08T05:53:19.315Z,47.30
2018-05-08T05:55:46.750Z,47.20
2018-05-08T05:58:14.225Z,47.00
2018-05-08T06:00:42.656Z,47.40
2018-05-08T06:03:10.915Z,46.60
2018-05-08T06:05:38.355Z,46.60
2018-05-08T06:08:06.769Z,46.90
2018-05-08T06:10:35.078Z,47.90
2018-05-08T06:13:02.596Z,47.90
2018-05-08T06:15:30.050Z,48.40
2018-05-08T06:17:57.554Z,48.60
2018-05-08T06:20:25.124Z,50.40
2018-05-08T06:22:52.541Z,52.70
2018-05-08T06:25:22.028Z,56.40
2018-05-08T06:27:49.488Z,56.30
2018-05-08T06:30:17.870Z,58.00
2018-05-08T06:32:46.249Z,60.70
2018-05-08T06:35:13.717Z,60.70
2018-05-08T06:37:41.312Z,61.20
2018-05-08T06:40:08.883Z,62.10
2018-05-08T06:42:36.280Z,62.80
2018-05-08T06:45:04.677Z,62.80
2018-05-08T06:47:33.140Z,63.40
2018-05-08T06:50:00.612Z,63.40
2018-05-08T06:52:28.275Z,62.70
2018-05-08T06:54:55.750Z,63.10
2018-05-08T06:57:24.608Z,62.70
2018-05-08T06:59:52.068Z,62.70
2018-05-08T07:02:19.571Z,62.80
2018-05-08T07:04:47.047Z,62.90
2018-05-08T07:07:14.545Z,62.60
2018-05-08T07:09:42.866Z,63.00
2018-05-08T07:12:10.349Z,62.10
2018-05-08T07:14:37.975Z,62.60
2018-05-08T07:17:06.290Z,62.70
2018-05-08T07:19:34.880Z,62.90
2018-05-08T07:22:02.325Z,62.70
2018-05-08T07:24:29.818Z,62.70
2018-05-08T07:26:57.306Z,63.60
2018-05-08T07:29:24.807Z,62.10
2018-05-08T07:31:52.340Z,62.40
2018-05-08T07:34:19.815Z,62.80
2018-05-08T07:36:47.314Z,62.00
2018-05-08T07:39:14.817Z,62.10
2018-05-08T07:41:42.907Z,62.20
2018-05-08T07:44:10.590Z,62.20
2018-05-08T07:46:39.551Z,60.70
2018-05-08T07:49:08.081Z,60.70
2018-05-08T07:51:35.576Z,60.60
2018-05-08T07:54:03.082Z,60.80
2018-05-08T07:56:30.568Z,61.20
2018-05-08T07:58:58.041Z,60.40
2018-05-08T08:01:30.065Z,60.20
2018-05-08T08:03:57.530Z,60.10
2018-05-08T08:06:25.873Z,59.60
2018-05-08T08:08:53.353Z,59.60
2018-05-08T08:11:20.855Z,59.70
2018-05-08T08:13:48.323Z,59.20
2018-05-08T08:16:16.294Z,58.60
2018-05-08T08:18:44.945Z,58.70
2018-05-08T08:21:12.788Z,59.00
2018-05-08T08:23:40.248Z,59.00
2018-05-08T08:26:07.813Z,59.70
2018-05-08T08:28:36.644Z,59.60
2018-05-08T08:31:04.279Z,58.50
2018-05-08T08:33:33.171Z,58.80
2018-05-08T08:36:02.417Z,57.60
2018-05-08T08:38:30.821Z,57.60
2018-05-08T08:40:59.099Z,56.70
2018-05-08T08:43:26.570Z,56.20
2018-05-08T08:45:55.720Z,54.40
2018-05-08T08:48:25.516Z,54.40
2018-05-08T08:50:54.154Z,54.70
2018-05-08T08:53:23.363Z,54.10
2018-05-08T08:55:50.828Z,54.10
2018-05-08T08:58:18.327Z,53.70
2018-05-08T09:00:45.816Z,54.70
2018-05-08T09:03:13.273Z,54.30
2018-05-08T09:05:41.886Z,54.30
2018-05-08T09:08:10.134Z,54.00
2018-05-08T09:10:37.622Z,54.00
2018-05-08T09:13:05.840Z,53.60
2018-05-08T09:15:33.297Z,53.60
2018-05-08T09:18:05.190Z,52.40
2018-05-08T09:20:33.061Z,49.20
2018-05-08T09:23:00.587Z,48.60
2018-05-08T09:25:28.047Z,49.10
2018-05-08T09:27:56.467Z,49.80
2018-05-08T09:30:25.240Z,49.90
2018-05-08T09:32:57.255Z,49.50
2018-05-08T09:35:24.719Z,51.50
2018-05-08T09:37:52.232Z,49.60
2018-05-08T09:40:20.498Z,50.50
2018-05-08T09:42:48.748Z,50.60
2018-05-08T09:45:17.016Z,50.50
2018-05-08T09:47:44.916Z,50.60
2018-05-08T09:50:12.403Z,50.60
2018-05-08T09:52:41.626Z,51.10
2018-05-08T09:55:09.100Z,50.60
2018-05-08T09:57:36.565Z,50.30
2018-05-08T10:00:04.064Z,51.30
2018-05-08T10:02:31.719Z,51.50
2018-05-08T10:05:00.895Z,52.10
2018-05-08T10:07:28.403Z,52.10
2018-05-08T10:09:56.474Z,51.70
2018-05-08T10:12:25.624Z,52.40
2018-05-08T10:14:53.105Z,52.60
2018-05-08T10:17:21.380Z,52.40
2018-05-08T10:19:56.459Z,52.40
2018-05-08T10:22:24.788Z,52.50
2018-05-08T10:24:53.102Z,52.50
2018-05-08T10:27:21.420Z,52.40
2018-05-08T10:29:48.905Z,52.60
2018-05-08T10:32:17.142Z,53.70
2018-05-08T10:34:50.278Z,53.30
2018-05-08T10:37:17.777Z,53.30
2018-05-08T10:39:46.189Z,53.70
2018-05-08T10:42:16.104Z,53.90
2018-05-08T10:44:45.330Z,53.80
2018-05-08T10:47:13.574Z,54.10
2018-05-08T10:49:43.953Z,54.10
2018-05-08T10:52:12.292Z,53.90
2018-05-08T10:54:39.753Z,53.80
2018-05-08T10:57:08.030Z,55.00
2018-05-08T10:59:35.692Z,55.00
2018-05-08T11:02:03.180Z,54.60
2018-05-08T11:04:35.190Z,54.30
2018-05-08T11:07:02.671Z,54.50
2018-05-08T11:09:30.383Z,53.80
2018-05-08T11:11:58.428Z,53.30
2018-05-08T11:14:26.563Z,53.20
2018-05-08T11:16:54.050Z,54.10
2018-05-08T11:19:23.599Z,52.60
2018-05-08T11:21:51.090Z,52.60
2018-05-08T11:24:19.429Z,51.80
2018-05-08T11:26:48.076Z,52.00
2018-05-08T11:29:15.784Z,51.20
2018-05-08T11:31:43.768Z,51.80
2018-05-08T11:34:11.216Z,51.60
2018-05-08T11:36:39.477Z,50.80
2018-05-08T11:39:06.929Z,50.10
2018-05-08T11:41:36.469Z,49.60
2018-05-08T11:44:04.885Z,51.30
2018-05-08T11:46:33.301Z,51.30
2018-05-08T11:49:01.385Z,50.90
2018-05-08T11:51:28.944Z,51.20
2018-05-08T11:53:56.417Z,51.40
2018-05-08T11:56:24.010Z,50.00
2018-05-08T11:58:51.463Z,49.70
2018-05-08T12:01:19.043Z,50.50
2018-05-08T12:03:46.433Z,50.50
2018-05-08T12:06:13.931Z,51.00
2018-05-08T12:08:43.840Z,50.80
2018-05-08T12:11:12.974Z,50.20
2018-05-08T12:13:41.525Z,50.20
2018-05-08T12:16:09.006Z,50.30
2018-05-08T12:18:36.549Z,49.50
2018-05-08T12:21:04.017Z,49.40
2018-05-08T12:23:32.034Z,49.30
2018-05-08T12:25:59.524Z,49.80
2018-05-08T12:28:26.996Z,49.80
2018-05-08T12:30:54.515Z,50.30
2018-05-08T12:33:22.788Z,48.90
2018-05-08T12:35:51.174Z,48.70
2018-05-08T12:38:18.743Z,48.90
2018-05-08T12:40:46.204Z,49.40
2018-05-08T12:43:15.316Z,49.80
2018-05-08T12:45:42.854Z,50.50
2018-05-08T12:48:11.115Z,50.90
2018-05-08T12:50:39.495Z,50.90
2018-05-08T12:53:10.303Z,50.80
2018-05-08T12:55:37.772Z,51.10
2018-05-08T12:58:07.296Z,50.90
2018-05-08T13:00:35.682Z,50.90
2018-05-08T13:03:03.942Z,51.00
2018-05-08T13:05:31.776Z,51.20
2018-05-08T13:08:04.631Z,51.50
2018-05-08T13:10:32.092Z,52.10
2018-05-08T13:13:00.095Z,51.70
2018-05-08T13:15:27.578Z,51.30
2018-05-08T13:17:55.986Z,50.30
2018-05-08T13:20:23.455Z,50.30
2018-05-08T13:23:01.947Z,50.30
2018-05-08T13:25:29.431Z,50.20
2018-05-08T13:27:56.892Z,49.20
2018-05-08T13:30:24.400Z,48.60
2018-05-08T13:32:51.905Z,48.30
2018-05-08T13:35:20.311Z,49.10
2018-05-08T13:37:52.240Z,49.10
2018-05-08T13:40:19.706Z,49.40
2018-05-08T13:42:47.937Z,47.50
2018-05-08T13:45:17.548Z,47.50
2018-05-08T13:47:45.221Z,46.80
2018-05-08T13:50:12.745Z,46.80
2018-05-08T13:52:45.270Z,45.90
2018-05-08T13:55:12.743Z,45.60
2018-05-08T13:57:41.179Z,46.90
2018-05-08T14:00:08.633Z,46.80
2018-05-08T14:02:36.333Z,45.90
2018-05-08T14:05:03.858Z,47.30
2018-05-08T14:07:31.434Z,46.80
2018-05-08T14:09:58.861Z,46.20
2018-05-08T14:12:26.373Z,45.50
2018-05-08T14:14:54.655Z,45.70
2018-05-08T14:17:22.134Z,45.50
2018-05-08T14:19:49.863Z,45.80
2018-05-08T14:22:18.139Z,46.80
2018-05-08T14:24:46.436Z,46.70
2018-05-08T14:27:13.870Z,46.70
2018-05-08T14:29:42.965Z,46.50
2018-05-08T14:32:10.420Z,46.40
2018-05-08T14:34:39.728Z,45.30
2018-05-08T14:37:08.003Z,45.10
2018-05-08T14:39:40.079Z,44.70
2018-05-08T14:42:07.965Z,44.70
2018-05-08T14:44:35.670Z,43.70
2018-05-08T14:47:03.159Z,43.00
2018-05-08T14:49:30.618Z,43.20
2018-05-08T14:51:58.073Z,44.10
2018-05-08T14:54:30.239Z,44.10
2018-05-08T14:56:57.697Z,44.70
2018-05-08T14:59:25.311Z,43.50
2018-05-08T15:01:52.786Z,43.80
2018-05-08T15:04:20.280Z,44.00
2018-05-08T15:06:47.753Z,42.60
2018-05-08T15:09:19.265Z,42.20
2018-05-08T15:11:46.824Z,42.50
2018-05-08T15:14:14.944Z,43.50
2018-05-08T15:16:42.468Z,42.90
2018-05-08T15:19:10.745Z,43.40
2018-05-08T15:21:39.058Z,42.30
2018-05-08T15:24:06.526Z,42.30
2018-05-08T15:26:34.623Z,43.00
2018-05-08T15:29:02.854Z,43.90
2018-05-08T15:31:30.347Z,43.60
2018-05-08T15:33:57.815Z,42.90
2018-05-08T15:36:25.336Z,42.50
2018-05-08T15:38:52.798Z,43.30
2018-05-08T15:41:20.361Z,44.20
2018-05-08T15:43:47.886Z,44.60
2018-05-08T15:46:15.363Z,44.60
2018-05-08T15:48:42.825Z,44.50
2018-05-08T15:51:11.419Z,45.40
2018-05-08T15:53:39.285Z,46.10
2018-05-08T15:56:06.843Z,45.10
2018-05-08T15:58:35.211Z,45.70
2018-05-08T16:01:02.921Z,45.20
2018-05-08T16:03:30.736Z,45.30
2018-05-08T16:05:58.753Z,45.60
2018-05-08T16:08:26.242Z,45.30
2018-05-08T16:11:02.745Z,45.50
2018-05-08T16:13:30.233Z,45.50
2018-05-08T16:15:57.755Z,44.80
2018-05-08T16:18:26.493Z,45.00
2018-05-08T16:20:54.022Z,45.00
2018-05-08T16:23:21.437Z,45.40
2018-05-08T16:25:52.524Z,45.30
2018-05-08T16:28:21.551Z,44.50
2018-05-08T16:30:49.052Z,44.50
2018-05-08T16:33:16.551Z,43.70
2018-05-08T16:35:44.018Z,43.20
2018-05-08T16:38:11.516Z,42.00
2018-05-08T16:40:39.698Z,41.00
2018-05-08T16:43:08.710Z,39.40
2018-05-08T16:45:36.153Z,40.10
2018-05-08T16:48:03.636Z,39.70
2018-05-08T16:50:31.112Z,40.10
2018-05-08T16:53:00.043Z,40.30
2018-05-08T16:55:32.221Z,40.20
2018-05-08T16:58:00.203Z,41.40
2018-05-08T17:00:27.701Z,41.90
2018-05-08T17:02:55.200Z,41.70
2018-05-08T17:05:22.712Z,41.30
2018-05-08T17:07:50.280Z,40.70
2018-05-08T17:10:23.197Z,38.80
2018-05-08T17:12:50.874Z,38.80
2018-05-08T17:15:19.110Z,38.20
2018-05-08T17:17:47.048Z,37.70
2018-05-08T17:20:15.368Z,37.20
2018-05-08T17:22:44.612Z,39.10
2018-05-08T17:25:13.752Z,39.00
2018-05-08T17:27:42.018Z,39.80
2018-05-08T17:30:10.194Z,38.80
2018-05-08T17:32:38.595Z,39.20
2018-05-08T17:35:07.084Z,39.30
2018-05-08T17:37:34.880Z,39.30
2018-05-08T17:40:04.043Z,40.40
2018-05-08T17:42:31.791Z,40.40
2018-05-08T17:44:59.964Z,41.20
2018-05-08T17:47:30.330Z,42.20
2018-05-08T17:49:58.395Z,42.20
2018-05-08T17:52:25.893Z,42.60
2018-05-08T17:54:53.643Z,42.90
2018-05-08T17:57:21.114Z,43.50
2018-05-08T17:59:48.593Z,44.10
2018-05-08T18:02:16.562Z,44.30
2018-05-08T18:04:44.782Z,44.90
2018-05-08T18:07:12.397Z,44.80
2018-05-08T18:09:39.887Z,45.00
2018-05-08T18:12:07.426Z,45.50
2018-05-08T18:14:35.576Z,45.50
2018-05-08T18:17:03.088Z,46.10
2018-05-08T18:19:31.326Z,46.60
2018-05-08T18:21:59.508Z,47.00
2018-05-08T18:24:27.779Z,47.70
2018-05-08T18:27:09.234Z,48.20
2018-05-08T18:29:36.771Z,48.20
2018-05-08T18:32:04.270Z,48.70
2018-05-08T18:34:31.791Z,49.40
2018-05-08T18:36:59.275Z,49.60
2018-05-08T18:39:27.432Z,50.10
2018-05-08T18:41:58.341Z,50.50
2018-05-08T18:44:26.496Z,50.90
2018-05-08T18:46:53.994Z,51.10
2018-05-08T18:49:22.431Z,51.30
2018-05-08T18:51:49.890Z,51.60
2018-05-08T18:54:17.459Z,52.00
2018-05-08T18:56:44.949Z,52.40
2018-05-08T18:59:17.248Z,52.30
2018-05-08T19:01:44.708Z,52.50
2018-05-08T19:04:12.575Z,53.30
2018-05-08T19:06:40.858Z,53.20
2018-05-08T19:09:08.413Z,53.40
2018-05-08T19:11:43.356Z,53.70
2018-05-08T19:14:10.942Z,53.80
2018-05-08T19:16:38.485Z,54.00
2018-05-08T19:19:13.443Z,54.30
2018-05-08T19:21:40.920Z,54.20
2018-05-08T19:24:13.996Z,54.50
2018-05-08T19:26:41.607Z,54.90
2018-05-08T19:29:18.536Z,55.00
2018-05-08T19:31:45.993Z,55.40
2018-05-08T19:34:13.496Z,56.30
2018-05-08T19:36:46.514Z,56.00
2018-05-08T19:39:14.994Z,56.00
2018-05-08T19:41:42.464Z,56.30
2018-05-08T19:44:13.489Z,56.30
2018-05-08T19:46:41.460Z,56.50
2018-05-08T19:49:10.118Z,56.90
2018-05-08T19:51:37.660Z,57.10
2018-05-08T19:54:05.384Z,58.00
2018-05-08T19:56:32.883Z,58.00
2018-05-08T19:59:00.346Z,58.60
2018-05-08T20:01:27.882Z,58.90
2018-05-08T20:03:55.411Z,59.10
2018-05-08T20:06:22.889Z,59.20
2018-05-08T20:08:51.090Z,59.20
2018-05-08T20:11:18.520Z,59.20
2018-05-08T20:13:49.118Z,59.40
2018-05-08T20:16:17.759Z,59.40
2018-05-08T20:18:46.874Z,59.70
2018-05-08T20:21:14.391Z,59.60
2018-05-08T20:23:42.556Z,59.80
2018-05-08T20:26:10.093Z,59.70
2018-05-08T20:28:38.000Z,59.70
2018-05-08T20:31:05.485Z,59.90
2018-05-08T20:33:32.969Z,59.90
2018-05-08T20:36:01.570Z,60.20
2018-05-08T20:38:29.148Z,60.20
2018-05-08T20:40:56.893Z,60.30
2018-05-08T20:43:24.428Z,60.70
2018-05-08T20:45:52.691Z,61.20
2018-05-08T20:48:20.197Z,61.20
2018-05-08T20:50:47.652Z,61.10
2018-05-08T20:53:15.202Z,61.10
2018-05-08T20:55:42.752Z,61.80
2018-05-08T20:58:10.978Z,62.00
2018-05-08T21:00:38.478Z,61.90
2018-05-08T21:03:06.773Z,63.50
2018-05-08T21:05:34.265Z,63.50
2018-05-08T21:08:01.762Z,64.50
2018-05-08T21:10:29.999Z,65.40
2018-05-08T21:12:57.472Z,66.20
2018-05-08T21:15:28.034Z,67.40
2018-05-08T21:17:55.545Z,69.60
2018-05-08T21:20:23.408Z,70.60
2018-05-08T21:22:51.335Z,71.10
2018-05-08T21:25:19.625Z,71.40
2018-05-08T21:27:53.490Z,70.80
2018-05-08T21:30:30.843Z,71.20
2018-05-08T21:32:59.117Z,72.20
2018-05-08T21:35:27.542Z,72.20
2018-05-08T21:37:55.900Z,73.80
2018-05-08T21:40:23.377Z,73.60
2018-05-08T21:42:51.730Z,74.00
2018-05-08T21:47:53.186Z,75.20
2018-05-08T21:50:21.020Z,75.70
2018-05-08T21:52:48.512Z,75.80
2018-05-08T21:55:16.807Z,75.30
2018-05-08T21:57:44.323Z,75.60
2018-05-08T22:00:12.636Z,76.00
2018-05-08T22:02:40.965Z,76.30
2018-05-08T22:05:08.871Z,76.60
2018-05-08T22:07:36.333Z,78.40
2018-05-08T22:10:03.784Z,78.70
2018-05-08T22:12:31.344Z,79.40
2018-05-08T22:14:58.873Z,79.80
2018-05-08T22:17:26.833Z,80.10
2018-05-08T22:19:55.928Z,80.70
2018-05-08T22:22:23.449Z,80.60
2018-05-08T22:24:51.234Z,82.20
2018-05-08T22:27:18.730Z,82.30
2018-05-08T22:29:46.188Z,83.20
2018-05-08T22:32:14.867Z,83.90
2018-05-08T22:34:42.360Z,85.20
2018-05-08T22:37:09.852Z,85.00
2018-05-08T22:39:39.773Z,85.80
2018-05-08T22:42:07.279Z,85.80
2018-05-08T22:44:35.121Z,85.40
2018-05-08T22:47:02.589Z,86.20
2018-05-08T22:49:30.100Z,86.40
2018-05-08T22:51:59.883Z,87.30
2018-05-08T22:54:28.276Z,87.10
2018-05-08T22:56:55.783Z,86.00
2018-05-08T22:59:23.265Z,86.70
2018-05-08T23:01:51.161Z,87.70
2018-05-08T23:04:18.617Z,87.90
2018-05-08T23:06:46.389Z,88.00
2018-05-08T23:09:14.655Z,89.20
2018-05-08T23:11:43.315Z,89.80
2018-05-08T23:14:11.481Z,89.80
2018-05-08T23:16:38.934Z,90.20
2018-05-08T23:19:07.046Z,89.10
2018-05-08T23:21:34.556Z,89.00
2018-05-08T23:24:02.057Z,90.20
2018-05-08T23:26:29.520Z,90.60
2018-05-08T23:28:57.803Z,92.90
2018-05-08T23:31:26.685Z,92.90
2018-05-08T23:33:54.180Z,92.90
2018-05-08T23:36:21.668Z,92.60
2018-05-08T23:38:49.148Z,92.50
2018-05-08T23:41:16.634Z,92.40
2018-05-08T23:43:44.081Z,92.80
2018-05-08T23:46:11.567Z,92.70
2018-05-08T23:48:39.952Z,93.10
2018-05-08T23:51:07.465Z,93.30
2018-05-08T23:53:34.964Z,93.60
2018-05-08T23:56:02.481Z,94.10
2018-05-08T23:58:31.343Z,93.70
